Time;durP1;ratioP1;P1;durP2;ratioP2;P2;SDS_P1;SDS_P2;PMS_P1;PMS_P2;Temp;Humidity;BMP_temperature;BMP_pressure;BME280_temperature;BME280_humidity;BME280_pressure;Samples;Min_cycle;Max_cycle;Signal;HPM_P1;HPM_P2
2022/01/17 00:00:26;;;;;;;8.23;3.50;;;5.60;99.90;;;;;;5034336;28;20424;-70
2022/01/17 00:03:13;;;;;;;9.07;4.47;;;5.60;99.90;;;;;;5033005;28;20469;-69
2022/01/17 00:06:00;;;;;;;10.87;5.33;;;5.60;99.90;;;;;;5034531;28;20429;-71
2022/01/17 00:08:49;;;;;;;0.60;0.60;;;5.60;99.90;;;;;;5032992;28;20425;-69
2022/01/17 00:11:41;;;;;;;6.37;2.50;;;5.60;99.90;;;;;;5035017;28;20503;-70
2022/01/17 00:14:34;;;;;;;1.13;0.83;;;5.60;99.90;;;;;;5035269;28;20429;-70
2022/01/17 00:17:31;;;;;;;5.23;2.63;;;5.70;99.90;;;;;;5034616;28;20457;-70
2022/01/17 00:20:25;;;;;;;3.50;3.03;;;5.70;99.90;;;;;;5034351;28;20486;-72
2022/01/17 00:23:12;;;;;;;0.87;0.87;;;5.60;99.90;;;;;;5035278;28;20457;-70
2022/01/17 00:25:59;;;;;;;3.50;2.47;;;5.60;99.90;;;;;;5034437;28;20428;-69
2022/01/17 00:28:46;;;;;;;4.67;1.40;;;5.60;99.90;;;;;;5034380;28;20432;-70
2022/01/17 00:31:33;;;;;;;4.00;3.03;;;5.70;99.90;;;;;;5035163;28;20441;-70
2022/01/17 00:34:21;;;;;;;7.37;2.27;;;5.80;99.90;;;;;;5034530;28;20428;-70
2022/01/17 00:37:08;;;;;;;0.80;0.63;;;5.70;99.90;;;;;;5036217;28;20472;-69
2022/01/17 00:39:55;;;;;;;7.07;5.60;;;5.80;99.90;;;;;;5035086;28;20934;-70
2022/01/17 00:42:43;;;;;;;1.10;1.10;;;5.80;99.90;;;;;;5034537;28;20488;-70
2022/01/17 00:45:31;;;;;;;13.90;5.47;;;5.80;99.90;;;;;;5035025;28;20457;-69
2022/01/17 00:48:18;;;;;;;2.83;2.20;;;5.90;99.90;;;;;;5034926;28;20970;-69
2022/01/17 00:51:06;;;;;;;3.37;2.10;;;5.90;99.90;;;;;;5034472;28;20448;-70
2022/01/17 00:53:53;;;;;;;3.73;1.60;;;5.90;99.90;;;;;;5034466;28;20421;-69
2022/01/17 00:56:40;;;;;;;13.77;6.13;;;6.00;99.90;;;;;;5034013;28;20425;-69
2022/01/17 00:59:27;;;;;;;6.73;3.13;;;6.00;99.90;;;;;;5037659;28;20425;-72
2022/01/17 01:02:14;;;;;;;2.57;2.37;;;6.10;99.90;;;;;;5037809;28;20475;-69
2022/01/17 01:05:01;;;;;;;5.13;3.13;;;6.20;99.90;;;;;;5038002;28;20794;-69
2022/01/17 01:07:51;;;;;;;7.73;3.20;;;6.10;99.90;;;;;;5038447;28;20425;-69
2022/01/17 01:10:38;;;;;;;6.87;2.53;;;6.20;99.90;;;;;;5037810;28;20421;-70
2022/01/17 01:13:28;;;;;;;2.60;2.27;;;6.20;99.90;;;;;;5037437;28;20421;-70
2022/01/17 01:16:32;;;;;;;3.33;2.50;;;6.20;99.90;;;;;;5037903;28;20440;-69
2022/01/17 01:19:28;;;;;;;0.50;0.50;;;6.30;99.90;;;;;;5035807;28;20629;-70
2022/01/17 01:28:22;;;;;;;2.70;2.30;;;6.30;99.90;;;;;;5038114;28;20496;-68
2022/01/17 01:31:14;;;;;;;6.60;2.10;;;6.30;99.90;;;;;;5037653;28;20437;-68
2022/01/17 01:34:04;;;;;;;2.20;1.57;;;6.30;99.90;;;;;;5038293;28;20424;-68
2022/01/17 01:36:51;;;;;;;1.77;1.63;;;6.40;99.90;;;;;;5038230;28;20431;-68
2022/01/17 01:39:38;;;;;;;2.10;1.13;;;6.40;99.90;;;;;;5037924;28;20797;-68
2022/01/17 01:42:29;;;;;;;1.50;1.40;;;6.40;99.90;;;;;;5038639;28;20464;-68
2022/01/17 01:45:16;;;;;;;2.03;1.87;;;6.40;99.90;;;;;;5039107;28;20452;-67
2022/01/17 01:48:05;;;;;;;1.03;0.90;;;6.40;99.90;;;;;;5039476;28;20435;-68
2022/01/17 01:50:52;;;;;;;1.93;1.83;;;6.40;99.90;;;;;;5037396;28;20425;-67
2022/01/17 01:53:39;;;;;;;3.23;2.63;;;6.40;99.90;;;;;;5038579;28;20964;-68
2022/01/17 01:56:26;;;;;;;5.00;1.63;;;6.40;99.90;;;;;;5037017;28;20437;-67
2022/01/17 01:59:16;;;;;;;0.40;0.40;;;6.40;99.90;;;;;;5037774;28;20590;-68
2022/01/17 02:02:04;;;;;;;3.30;2.07;;;6.40;99.90;;;;;;5037409;28;20460;-68
2022/01/17 02:04:50;;;;;;;0.50;0.50;;;6.50;99.90;;;;;;5037542;28;20801;-67
2022/01/17 02:07:38;;;;;;;1.63;1.53;;;6.50;99.90;;;;;;5038879;28;20433;-68
2022/01/17 02:10:26;;;;;;;2.83;1.60;;;6.40;99.90;;;;;;5036619;28;20578;-68
2022/01/17 02:13:12;;;;;;;2.30;1.33;;;6.50;99.90;;;;;;5038352;28;20413;-68
2022/01/17 02:16:05;;;;;;;0.70;0.70;;;6.50;99.90;;;;;;5037805;28;20434;-68
2022/01/17 02:18:52;;;;;;;1.13;0.80;;;6.50;99.90;;;;;;5037213;28;20436;-68
2022/01/17 02:21:46;;;;;;;0.60;0.60;;;6.40;99.90;;;;;;5037718;28;20468;-68
2022/01/17 02:24:33;;;;;;;3.40;1.67;;;6.40;99.90;;;;;;5038314;28;20810;-68
2022/01/17 02:27:20;;;;;;;1.13;1.00;;;6.40;99.90;;;;;;5037983;28;20486;-68
2022/01/17 02:30:08;;;;;;;0.60;0.60;;;6.40;99.90;;;;;;5037642;28;20440;-68
2022/01/17 02:32:55;;;;;;;2.40;1.43;;;6.30;99.90;;;;;;5037715;28;20445;-68
2022/01/17 02:35:47;;;;;;;0.40;0.40;;;6.30;99.90;;;;;;5039834;28;20429;-68
2022/01/17 02:38:35;;;;;;;2.00;0.70;;;6.30;99.90;;;;;;5038820;28;20429;-67
2022/01/17 02:41:22;;;;;;;0.43;0.43;;;6.30;99.90;;;;;;5038625;28;20444;-68
2022/01/17 02:44:10;;;;;;;0.63;0.50;;;6.30;99.90;;;;;;5053671;28;20476;-68
2022/01/17 02:46:58;;;;;;;0.40;0.40;;;6.30;99.90;;;;;;5056504;28;20504;-70
2022/01/17 02:49:45;;;;;;;0.50;0.50;;;6.30;99.90;;;;;;5046628;28;20421;-68
2022/01/17 02:52:32;;;;;;;5.17;0.70;;;6.30;99.90;;;;;;5044716;28;20461;-67
2022/01/17 02:55:20;;;;;;;3.10;0.60;;;6.30;99.90;;;;;;5056937;28;20429;-67
2022/01/17 02:58:07;;;;;;;1.13;0.50;;;6.30;99.90;;;;;;5049392;28;20441;-67
2022/01/17 03:00:56;;;;;;;4.63;0.87;;;6.30;99.90;;;;;;5036804;28;20898;-66
2022/01/17 03:03:43;;;;;;;2.67;0.60;;;6.30;99.90;;;;;;5035566;28;20466;-67
2022/01/17 03:06:30;;;;;;;3.23;0.73;;;6.30;99.90;;;;;;5036614;28;20410;-66
2022/01/17 03:09:17;;;;;;;1.70;0.53;;;6.20;99.90;;;;;;5035846;28;20449;-67
2022/01/17 03:12:06;;;;;;;2.40;0.50;;;6.20;99.90;;;;;;5036680;28;20453;-67
2022/01/17 03:14:53;;;;;;;0.47;0.47;;;6.20;99.90;;;;;;5036625;28;20469;-67
2022/01/17 03:17:41;;;;;;;0.40;0.40;;;6.30;99.90;;;;;;5017871;28;20426;-67
2022/01/17 03:20:28;;;;;;;6.23;1.20;;;6.30;99.90;;;;;;5016849;28;20462;-68
2022/01/17 03:23:16;;;;;;;4.37;0.50;;;6.20;99.90;;;;;;5016255;28;20891;-68
2022/01/17 03:26:03;;;;;;;1.23;0.50;;;6.30;99.90;;;;;;5021738;28;20426;-67
2022/01/17 03:28:52;;;;;;;0.50;0.50;;;6.20;99.90;;;;;;5024313;28;20437;-68
2022/01/17 03:31:39;;;;;;;1.47;0.70;;;6.20;99.90;;;;;;5022907;28;20476;-68
2022/01/17 03:34:25;;;;;;;0.40;0.40;;;6.30;99.90;;;;;;5023341;28;20437;-69
2022/01/17 03:37:12;;;;;;;0.70;0.70;;;6.30;99.90;;;;;;5020361;28;20428;-67
2022/01/17 03:39:59;;;;;;;0.40;0.40;;;6.20;99.90;;;;;;5015998;28;20958;-67
2022/01/17 03:42:46;;;;;;;1.47;1.00;;;6.20;99.90;;;;;;5015693;28;20461;-68
2022/01/17 03:45:35;;;;;;;0.77;0.77;;;6.20;99.90;;;;;;5016559;28;20797;-67
2022/01/17 03:48:23;;;;;;;1.27;0.60;;;6.20;99.90;;;;;;5014967;28;20434;-69
2022/01/17 03:51:10;;;;;;;1.90;0.60;;;6.20;99.90;;;;;;5014355;28;20450;-67
2022/01/17 03:53:57;;;;;;;0.40;0.40;;;6.20;99.90;;;;;;5015297;28;20418;-67
2022/01/17 03:56:44;;;;;;;0.60;0.60;;;6.20;99.90;;;;;;5015552;28;20809;-67
2022/01/17 03:59:31;;;;;;;2.30;0.80;;;6.20;99.90;;;;;;5015350;28;20425;-68
2022/01/17 04:02:19;;;;;;;2.70;0.93;;;6.30;99.90;;;;;;5014943;28;20453;-68
2022/01/17 04:05:07;;;;;;;3.03;1.03;;;6.20;99.90;;;;;;5015690;28;20418;-68
2022/01/17 04:07:54;;;;;;;0.70;0.53;;;6.20;99.90;;;;;;5014568;28;20970;-68
2022/01/17 04:10:42;;;;;;;0.40;0.40;;;6.20;99.90;;;;;;5015319;28;20426;-68
2022/01/17 04:13:29;;;;;;;0.40;0.40;;;6.20;99.90;;;;;;5016391;28;20849;-68
2022/01/17 04:16:16;;;;;;;0.87;0.63;;;6.20;99.90;;;;;;5016407;28;20440;-68
2022/01/17 04:19:04;;;;;;;0.43;0.43;;;6.20;99.90;;;;;;5014459;28;20485;-67
2022/01/17 04:21:51;;;;;;;1.50;1.47;;;6.20;99.90;;;;;;5014774;28;20453;-68
2022/01/17 04:24:38;;;;;;;1.33;0.90;;;6.20;99.90;;;;;;5014700;28;20470;-67
2022/01/17 04:27:25;;;;;;;1.27;0.70;;;6.20;99.90;;;;;;5014641;28;20430;-67
2022/01/17 04:30:14;;;;;;;4.67;0.90;;;6.20;99.90;;;;;;5014240;28;20934;-67
2022/01/17 04:33:01;;;;;;;0.60;0.50;;;6.20;99.90;;;;;;5013513;28;20422;-67
2022/01/17 04:35:49;;;;;;;6.17;1.20;;;6.20;99.90;;;;;;5014560;28;20445;-69
2022/01/17 04:38:37;;;;;;;1.83;0.70;;;6.20;99.90;;;;;;5013091;28;20430;-68
2022/01/17 04:41:35;;;;;;;0.47;0.47;;;6.20;99.90;;;;;;5014444;28;20450;-68
2022/01/17 04:47:26;;;;;;;0.50;0.50;;;6.20;99.90;;;;;;5014773;28;20414;-69
2022/01/17 04:50:15;;;;;;;4.03;1.50;;;6.20;99.90;;;;;;5014380;28;20437;-68
2022/01/17 04:53:03;;;;;;;5.00;0.80;;;6.10;99.90;;;;;;5015278;28;20938;-69
2022/01/17 04:55:51;;;;;;;0.60;0.60;;;6.20;99.90;;;;;;5014764;28;20421;-69
2022/01/17 04:58:37;;;;;;;0.70;0.63;;;6.20;99.90;;;;;;5014034;28;20938;-68
2022/01/17 05:01:24;;;;;;;8.57;1.13;;;6.10;99.90;;;;;;5019960;28;20441;-68
2022/01/17 05:04:11;;;;;;;0.80;0.60;;;6.10;99.90;;;;;;5018330;28;20465;-68
2022/01/17 05:06:58;;;;;;;0.63;0.60;;;6.10;99.90;;;;;;5016974;28;20430;-68
2022/01/17 05:09:47;;;;;;;3.20;1.10;;;6.10;99.90;;;;;;5014615;28;20822;-68
2022/01/17 05:12:34;;;;;;;0.40;0.40;;;6.10;99.90;;;;;;5014303;28;20503;-68
2022/01/17 05:15:31;;;;;;;2.93;0.93;;;6.00;99.90;;;;;;5014286;28;20457;-68
2022/01/17 05:19:47;;;;;;;1.43;0.60;;;6.00;99.90;;;;;;5013849;28;20436;-67
2022/01/17 05:21:31;;;;;;;2.83;0.60;;;6.00;99.90;;;;;;5013917;28;20484;-69
2022/01/17 05:24:18;;;;;;;0.40;0.40;;;6.00;99.90;;;;;;5013221;28;20472;-68
2022/01/17 05:27:07;;;;;;;2.20;0.83;;;6.00;99.90;;;;;;5013970;28;20960;-68
2022/01/17 05:29:54;;;;;;;1.90;0.80;;;6.00;99.90;;;;;;5013839;28;20793;-68
2022/01/17 05:32:41;;;;;;;0.40;0.40;;;6.00;99.90;;;;;;5014026;28;20457;-68
2022/01/17 05:35:28;;;;;;;1.60;1.50;;;6.00;99.90;;;;;;5014863;28;20429;-68
2022/01/17 05:38:15;;;;;;;1.43;0.60;;;6.00;99.90;;;;;;5015278;28;20502;-68
2022/01/17 05:41:02;;;;;;;0.50;0.50;;;6.00;99.90;;;;;;5014763;28;20442;-68
2022/01/17 05:43:50;;;;;;;0.50;0.50;;;6.00;99.90;;;;;;5015153;28;20516;-68
2022/01/17 05:46:38;;;;;;;0.40;0.40;;;6.00;99.90;;;;;;5019027;28;20961;-68
2022/01/17 05:49:25;;;;;;;4.87;0.90;;;6.10;99.90;;;;;;5018014;28;20433;-67
2022/01/17 05:52:12;;;;;;;0.50;0.40;;;6.20;99.90;;;;;;5017584;28;20981;-68
2022/01/17 05:55:00;;;;;;;2.30;0.93;;;6.10;99.90;;;;;;5017956;28;20882;-68
2022/01/17 05:57:47;;;;;;;3.37;1.00;;;6.20;99.90;;;;;;5017816;28;20429;-68
2022/01/17 06:00:36;;;;;;;0.40;0.40;;;6.20;99.90;;;;;;5016457;28;20843;-68
2022/01/17 06:03:22;;;;;;;1.93;1.00;;;6.20;99.90;;;;;;5017203;28;20458;-68
2022/01/17 06:06:09;;;;;;;1.30;1.10;;;6.20;99.90;;;;;;5017723;28;20422;-68
2022/01/17 06:08:56;;;;;;;4.37;2.03;;;6.20;99.90;;;;;;5017746;28;20430;-68
2022/01/17 06:11:43;;;;;;;1.60;1.33;;;6.30;99.90;;;;;;5016514;28;20446;-68
2022/01/17 06:14:31;;;;;;;2.77;1.50;;;6.20;99.90;;;;;;5016608;28;20433;-68
2022/01/17 06:17:19;;;;;;;0.40;0.40;;;6.20;99.90;;;;;;5016774;28;20450;-68
2022/01/17 06:20:07;;;;;;;1.50;0.70;;;6.20;99.90;;;;;;5019977;28;20437;-69
2022/01/17 06:22:54;;;;;;;0.50;0.50;;;6.20;99.90;;;;;;5017859;28;20465;-69
2022/01/17 06:25:41;;;;;;;1.57;0.50;;;6.30;99.90;;;;;;5019741;28;20433;-68
2022/01/17 06:28:28;;;;;;;1.67;1.00;;;6.20;99.90;;;;;;5023598;28;20430;-69
2022/01/17 06:31:15;;;;;;;0.50;0.50;;;6.30;99.90;;;;;;5016773;28;20457;-69
2022/01/17 06:34:04;;;;;;;5.30;0.80;;;6.30;99.90;;;;;;5017301;28;20424;-70
2022/01/17 06:36:51;;;;;;;0.87;0.50;;;6.30;99.90;;;;;;5017374;28;20492;-68
2022/01/17 06:39:37;;;;;;;0.50;0.50;;;6.10;99.90;;;;;;5017179;28;20429;-69
2022/01/17 06:42:24;;;;;;;0.77;0.67;;;6.10;99.90;;;;;;5017575;28;20815;-68
2022/01/17 06:45:13;;;;;;;0.50;0.50;;;6.20;99.90;;;;;;5017127;28;20461;-67
2022/01/17 06:48:01;;;;;;;0.50;0.50;;;6.20;99.90;;;;;;5016248;28;20795;-70
2022/01/17 06:50:49;;;;;;;1.03;0.93;;;6.20;99.90;;;;;;5016935;28;20422;-67
2022/01/17 06:53:36;;;;;;;2.20;1.03;;;6.10;99.90;;;;;;5017679;28;20424;-68
2022/01/17 06:56:23;;;;;;;0.70;0.70;;;6.00;99.90;;;;;;5016042;28;20930;-68
2022/01/17 06:59:10;;;;;;;3.07;0.70;;;6.00;99.90;;;;;;5016734;28;20958;-68
2022/01/17 07:01:57;;;;;;;0.57;0.57;;;6.00;99.90;;;;;;5018370;28;20452;-68
2022/01/17 07:04:44;;;;;;;1.03;0.80;;;5.90;99.90;;;;;;5017210;28;20469;-68
2022/01/17 07:07:32;;;;;;;1.70;1.00;;;5.90;99.90;;;;;;5017590;28;20453;-69
2022/01/17 07:10:19;;;;;;;0.73;0.47;;;6.10;99.90;;;;;;5016436;28;20434;-69
2022/01/17 07:13:06;;;;;;;2.60;1.20;;;6.10;99.90;;;;;;5017009;28;20441;-67
2022/01/17 07:15:53;;;;;;;3.83;0.80;;;6.10;99.90;;;;;;5017577;28;20448;-69
2022/01/17 07:18:40;;;;;;;1.40;0.63;;;6.10;99.90;;;;;;5017294;28;20425;-67
2022/01/17 07:21:27;;;;;;;0.40;0.40;;;6.00;99.90;;;;;;5017108;28;20465;-68
2022/01/17 07:24:15;;;;;;;0.40;0.40;;;6.00;99.90;;;;;;5017042;28;20461;-68
2022/01/17 07:27:02;;;;;;;2.20;0.63;;;6.00;99.90;;;;;;5017009;28;20430;-69
2022/01/17 07:29:49;;;;;;;1.23;1.17;;;6.00;99.90;;;;;;5015901;28;20568;-70
2022/01/17 07:32:36;;;;;;;0.80;0.80;;;6.10;99.90;;;;;;5023277;28;20453;-68
2022/01/17 07:35:24;;;;;;;0.50;0.50;;;6.00;99.90;;;;;;5024688;28;20934;-68
2022/01/17 07:38:10;;;;;;;0.40;0.40;;;6.10;99.90;;;;;;5024783;28;20430;-69
2022/01/17 07:40:59;;;;;;;0.43;0.43;;;6.00;99.90;;;;;;5024520;28;20489;-68
2022/01/17 07:43:47;;;;;;;0.40;0.40;;;6.10;99.90;;;;;;5022263;28;20524;-68
2022/01/17 07:46:50;;;;;;;2.10;1.20;;;6.10;99.90;;;;;;5027898;28;20437;-70
2022/01/17 07:49:37;;;;;;;0.50;0.50;;;6.00;99.90;;;;;;5027016;28;20516;-68
2022/01/17 07:52:24;;;;;;;4.20;1.37;;;6.00;99.90;;;;;;5020985;28;20458;-68
2022/01/17 07:55:11;;;;;;;4.57;1.70;;;6.00;99.90;;;;;;5020207;28;20793;-69
2022/01/17 07:57:59;;;;;;;0.60;0.60;;;5.90;99.90;;;;;;5016095;28;20430;-68
2022/01/17 08:00:46;;;;;;;1.27;0.73;;;5.90;99.90;;;;;;5016249;28;20430;-70
2022/01/17 08:03:33;;;;;;;0.90;0.50;;;5.90;99.90;;;;;;5023824;28;20467;-68
2022/01/17 08:06:20;;;;;;;0.70;0.70;;;5.90;99.90;;;;;;5024620;28;20477;-68
2022/01/17 08:09:10;;;;;;;1.73;0.83;;;6.00;99.90;;;;;;5026835;28;20804;-68
2022/01/17 08:11:57;;;;;;;1.17;0.77;;;6.10;99.90;;;;;;5023215;28;20962;-69
2022/01/17 08:14:47;;;;;;;0.83;0.70;;;6.10;99.90;;;;;;5026814;28;20444;-68
2022/01/17 08:17:34;;;;;;;0.60;0.60;;;6.20;99.90;;;;;;5015664;28;20945;-69
2022/01/17 08:20:21;;;;;;;1.80;1.70;;;6.20;99.90;;;;;;5015427;28;20438;-69
2022/01/17 08:23:08;;;;;;;0.83;0.83;;;6.20;99.90;;;;;;5014989;28;20442;-67
2022/01/17 08:25:55;;;;;;;0.60;0.50;;;6.20;99.90;;;;;;5015078;28;20918;-69
2022/01/17 08:28:42;;;;;;;1.17;0.60;;;6.20;99.90;;;;;;5021867;28;20484;-67
2022/01/17 08:31:31;;;;;;;0.50;0.50;;;6.10;99.90;;;;;;5026736;28;20461;-67
2022/01/17 08:34:18;;;;;;;2.60;0.83;;;6.10;99.90;;;;;;5027583;28;20912;-68
2022/01/17 08:37:05;;;;;;;0.60;0.60;;;6.10;99.90;;;;;;5017956;28;20422;-68
2022/01/17 08:39:52;;;;;;;0.40;0.40;;;6.00;99.90;;;;;;5018509;28;20650;-68
2022/01/17 08:42:40;;;;;;;3.57;1.30;;;6.00;99.90;;;;;;5025302;28;20592;-70
2022/01/17 08:45:27;;;;;;;0.80;0.53;;;6.00;99.90;;;;;;5029238;28;20469;-70
2022/01/17 08:48:16;;;;;;;1.57;1.00;;;6.00;99.90;;;;;;5027915;28;20521;-69
2022/01/17 08:51:03;;;;;;;0.60;0.50;;;6.00;99.90;;;;;;5030127;28;20452;-68
2022/01/17 08:53:49;;;;;;;2.40;0.67;;;6.10;99.90;;;;;;5033285;28;20514;-69
2022/01/17 08:56:36;;;;;;;0.60;0.60;;;6.10;99.90;;;;;;5026323;28;20453;-71
2022/01/17 08:59:23;;;;;;;0.40;0.40;;;6.00;99.90;;;;;;5029601;28;20433;-69
2022/01/17 09:02:10;;;;;;;0.60;0.60;;;6.10;99.90;;;;;;5029941;28;20449;-69
2022/01/17 09:04:59;;;;;;;1.40;0.87;;;6.00;99.90;;;;;;5025723;28;20460;-70
2022/01/17 09:07:47;;;;;;;4.40;1.10;;;6.00;99.90;;;;;;5032389;28;20436;-69
2022/01/17 09:10:34;;;;;;;1.47;0.70;;;5.90;99.90;;;;;;5027319;28;20437;-70
2022/01/17 09:13:20;;;;;;;0.60;0.60;;;5.90;99.90;;;;;;5019937;28;20458;-68
2022/01/17 09:16:08;;;;;;;0.60;0.60;;;5.90;99.90;;;;;;5022121;28;20426;-69
2022/01/17 09:18:55;;;;;;;0.60;0.60;;;6.00;99.90;;;;;;5021083;28;20433;-71
2022/01/17 09:21:43;;;;;;;0.40;0.40;;;6.00;99.90;;;;;;5034624;28;20465;-69
2022/01/17 09:24:30;;;;;;;0.40;0.40;;;6.10;99.90;;;;;;5024846;28;20460;-69
2022/01/17 09:27:17;;;;;;;0.40;0.40;;;6.10;99.90;;;;;;5037406;28;20927;-69
2022/01/17 09:30:08;;;;;;;1.33;0.70;;;6.10;99.90;;;;;;5017657;28;20445;-69
2022/01/17 09:32:55;;;;;;;0.80;0.80;;;6.10;99.90;;;;;;5017529;28;20462;-68
2022/01/17 09:35:42;;;;;;;2.50;1.00;;;6.20;99.90;;;;;;5022298;28;20440;-68
2022/01/17 09:38:30;;;;;;;0.67;0.53;;;6.20;99.90;;;;;;5041086;28;20417;-69
2022/01/17 09:41:17;;;;;;;1.07;0.80;;;6.30;99.90;;;;;;5022644;28;20490;-68
2022/01/17 09:44:05;;;;;;;1.07;1.07;;;6.30;99.90;;;;;;5032552;28;20441;-68
2022/01/17 09:46:55;;;;;;;1.63;0.60;;;6.30;99.90;;;;;;5029986;28;20434;-68
2022/01/17 09:49:48;;;;;;;1.37;1.27;;;6.30;99.90;;;;;;5018002;28;20437;-69
2022/01/17 09:52:36;;;;;;;0.73;0.73;;;6.20;99.90;;;;;;5024638;28;20833;-70
2022/01/17 09:55:27;;;;;;;0.50;0.50;;;6.10;99.90;;;;;;5039023;28;20522;-69
2022/01/17 09:58:15;;;;;;;0.60;0.60;;;6.00;99.90;;;;;;5047969;28;20979;-71
2022/01/17 10:01:03;;;;;;;2.83;2.63;;;6.00;99.90;;;;;;5029640;28;20603;-69
2022/01/17 10:03:52;;;;;;;1.73;1.63;;;6.00;99.90;;;;;;5031951;28;20421;-69
2022/01/17 10:06:41;;;;;;;0.50;0.50;;;6.00;99.90;;;;;;5029347;28;20435;-70
2022/01/17 10:09:31;;;;;;;1.80;1.03;;;5.90;99.90;;;;;;5039712;28;20433;-70
2022/01/17 10:12:20;;;;;;;2.77;1.03;;;5.90;99.90;;;;;;5035578;28;20467;-69
2022/01/17 10:15:12;;;;;;;3.10;2.30;;;5.90;99.90;;;;;;5017477;28;20430;-70
2022/01/17 10:17:59;;;;;;;0.70;0.70;;;6.30;99.90;;;;;;5036666;28;20441;-69
2022/01/17 10:20:52;;;;;;;0.83;0.60;;;5.80;99.90;;;;;;5033890;28;20414;-69
2022/01/17 10:23:57;;;;;;;0.50;0.50;;;5.60;99.90;;;;;;5023033;28;20441;-70
2022/01/17 10:35:51;;;;;;;1.27;0.77;;;4.60;99.90;;;;;;5036264;28;21008;-70
2022/01/17 10:38:37;;;;;;;1.23;0.73;;;4.60;99.90;;;;;;5022405;28;20995;-69
2022/01/17 10:41:26;;;;;;;1.20;0.50;;;4.60;99.90;;;;;;5032137;28;20468;-70
2022/01/17 10:44:32;;;;;;;0.60;0.60;;;4.80;99.90;;;;;;5027370;28;20794;-69
2022/01/17 10:47:22;;;;;;;1.10;0.80;;;4.80;99.90;;;;;;5014452;28;20449;-69
2022/01/17 10:50:12;;;;;;;0.40;0.40;;;4.90;99.90;;;;;;5013915;28;20437;-69
2022/01/17 10:53:01;;;;;;;0.40;0.40;;;4.90;99.90;;;;;;5015038;28;20478;-70
2022/01/17 10:55:50;;;;;;;0.53;0.53;;;5.10;99.90;;;;;;5021829;28;20459;-69
2022/01/17 10:58:39;;;;;;;0.57;0.57;;;5.10;99.90;;;;;;5032995;28;20435;-70
2022/01/17 11:01:26;;;;;;;1.17;0.73;;;5.20;99.90;;;;;;5033142;28;20456;-69
2022/01/17 11:04:14;;;;;;;0.40;0.40;;;4.70;99.90;;;;;;5028554;28;20436;-69
2022/01/17 11:07:03;;;;;;;1.83;0.90;;;5.30;99.90;;;;;;5031061;28;20441;-69
2022/01/17 11:09:51;;;;;;;0.50;0.50;;;5.40;99.90;;;;;;5028201;28;20933;-70
2022/01/17 11:12:39;;;;;;;3.17;0.90;;;5.50;99.90;;;;;;5038978;28;20449;-71
2022/01/17 11:15:27;;;;;;;3.30;3.07;;;5.50;99.90;;;;;;5050810;28;20421;-72
2022/01/17 11:18:19;;;;;;;4.20;1.00;;;5.50;99.90;;;;;;5053026;28;20453;-73
2022/01/17 11:21:13;;;;;;;2.40;0.90;;;5.60;99.90;;;;;;5050610;28;20477;-73
2022/01/17 11:24:01;;;;;;;2.23;0.87;;;5.70;99.90;;;;;;5049967;28;20425;-71
2022/01/17 11:26:49;;;;;;;0.40;0.40;;;5.80;99.90;;;;;;5053136;28;20430;-73
2022/01/17 11:29:36;;;;;;;2.00;1.60;;;5.90;99.90;;;;;;5052350;28;20440;-71
2022/01/17 11:32:24;;;;;;;1.23;1.13;;;6.10;99.90;;;;;;5044545;28;20448;-71
2022/01/17 11:35:13;;;;;;;0.40;0.40;;;6.20;99.90;;;;;;5058004;28;20430;-72
2022/01/17 11:38:03;;;;;;;0.40;0.40;;;6.30;99.90;;;;;;5052456;28;20429;-72
2022/01/17 11:40:51;;;;;;;0.80;0.80;;;5.80;99.90;;;;;;5050247;28;20442;-71
2022/01/17 11:43:38;;;;;;;0.83;0.50;;;6.30;99.90;;;;;;5064267;28;20488;-75
2022/01/17 11:46:28;;;;;;;0.57;0.57;;;6.40;99.90;;;;;;5068073;28;20468;-71
2022/01/17 11:49:25;;;;;;;0.40;0.40;;;6.40;99.90;;;;;;5056022;28;20435;-73
2022/01/17 11:52:29;;;;;;;3.47;2.03;;;6.40;99.90;;;;;;5055999;28;20451;-70
2022/01/17 11:55:43;;;;;;;0.87;0.50;;;6.50;99.90;;;;;;5023852;28;20434;-70
2022/01/17 11:58:32;;;;;;;5.60;1.43;;;6.50;99.90;;;;;;5018678;28;20445;-70
2022/01/17 12:01:21;;;;;;;2.43;1.00;;;6.40;99.90;;;;;;5038771;28;20456;-71
2022/01/17 12:04:08;;;;;;;0.50;0.50;;;6.40;99.90;;;;;;5056666;28;20459;-73
2022/01/17 12:07:00;;;;;;;0.40;0.40;;;6.40;99.90;;;;;;5040978;28;20870;-71
2022/01/17 12:09:47;;;;;;;0.40;0.40;;;6.30;99.90;;;;;;5024686;28;20545;-71
2022/01/17 12:12:37;;;;;;;0.40;0.40;;;6.10;99.90;;;;;;5040166;28;20449;-72
2022/01/17 12:15:24;;;;;;;0.40;0.40;;;5.90;99.90;;;;;;5055419;28;20420;-74
2022/01/17 12:18:28;;;;;;;0.40;0.40;;;5.70;99.90;;;;;;5056712;28;20511;-70
2022/01/17 12:21:20;;;;;;;0.57;0.50;;;5.50;99.90;;;;;;5056028;28;20551;-70
2022/01/17 12:24:46;;;;;;;0.60;0.60;;;5.20;99.90;;;;;;5056796;28;20420;-71
2022/01/17 12:27:34;;;;;;;0.40;0.40;;;4.80;99.90;;;;;;5056022;28;20530;-70
2022/01/17 12:30:22;;;;;;;0.40;0.40;;;4.40;99.90;;;;;;5057611;28;20956;-70
2022/01/17 12:33:13;;;;;;;0.50;0.50;;;4.30;99.90;;;;;;5025103;28;20504;-70
2022/01/17 12:36:03;;;;;;;0.60;0.60;;;4.20;99.90;;;;;;5046424;28;20420;-70
2022/01/17 12:38:51;;;;;;;0.40;0.40;;;4.20;99.90;;;;;;5054001;28;20437;-71
2022/01/17 12:41:41;;;;;;;0.50;0.40;;;4.20;99.90;;;;;;5025472;28;20568;-71
2022/01/17 12:44:29;;;;;;;0.40;0.40;;;4.20;99.90;;;;;;5029069;28;20440;-71
2022/01/17 12:47:17;;;;;;;0.40;0.40;;;4.10;99.90;;;;;;5035108;28;20456;-73
2022/01/17 12:50:05;;;;;;;0.40;0.40;;;4.10;99.90;;;;;;5038216;28;20417;-72
2022/01/17 12:52:52;;;;;;;0.60;0.60;;;4.10;99.90;;;;;;5033553;28;20477;-71
2022/01/17 12:55:42;;;;;;;0.50;0.50;;;4.00;99.90;;;;;;5049815;28;20424;-74
2022/01/17 12:58:30;;;;;;;0.40;0.40;;;4.00;99.90;;;;;;5038563;28;20437;-71
2022/01/17 13:01:18;;;;;;;0.97;0.80;;;4.10;99.90;;;;;;5041978;28;20456;-74
2022/01/17 13:04:09;;;;;;;0.40;0.40;;;4.20;99.90;;;;;;5042844;28;20421;-73
2022/01/17 13:06:56;;;;;;;0.40;0.40;;;4.20;99.90;;;;;;5042961;28;20464;-70
2022/01/17 13:09:43;;;;;;;0.40;0.40;;;4.30;99.90;;;;;;5039696;28;20421;-70
2022/01/17 13:12:30;;;;;;;0.40;0.40;;;4.20;99.90;;;;;;5041421;28;21146;-71
2022/01/17 13:15:18;;;;;;;0.40;0.40;;;4.30;99.90;;;;;;5048807;28;20421;-75
2022/01/17 13:18:07;;;;;;;0.40;0.40;;;4.30;99.90;;;;;;5052499;28;20421;-71
2022/01/17 13:20:56;;;;;;;0.40;0.40;;;4.40;99.90;;;;;;5056102;28;20468;-73
2022/01/17 13:23:50;;;;;;;0.40;0.40;;;4.40;99.90;;;;;;5057183;28;20471;-72
2022/01/17 13:26:41;;;;;;;0.40;0.40;;;4.40;99.90;;;;;;5054597;28;20457;-71
2022/01/17 13:29:30;;;;;;;0.50;0.50;;;5.50;99.90;;;;;;5036100;28;20972;-73
2022/01/17 13:32:17;;;;;;;0.60;0.50;;;4.30;99.90;;;;;;5046483;28;21006;-70
2022/01/17 13:35:10;;;;;;;0.40;0.40;;;4.20;99.90;;;;;;5060877;28;20423;-70
2022/01/17 13:38:08;;;;;;;1.23;1.07;;;4.20;99.90;;;;;;5054497;28;20428;-70
2022/01/17 13:41:01;;;;;;;0.60;0.60;;;4.20;99.90;;;;;;5041058;28;20948;-70
2022/01/17 13:43:51;;;;;;;0.60;0.60;;;4.30;99.90;;;;;;5040332;28;20471;-71
2022/01/17 13:46:43;;;;;;;0.50;0.50;;;4.40;99.90;;;;;;5038794;28;20552;-70
2022/01/17 13:49:33;;;;;;;0.40;0.40;;;4.40;99.90;;;;;;5039891;28;20515;-70
2022/01/17 13:52:26;;;;;;;0.40;0.40;;;4.40;99.90;;;;;;5045205;28;20979;-70
2022/01/17 13:55:45;;;;;;;1.03;0.70;;;4.30;99.90;;;;;;5055437;28;20424;-70
2022/01/17 13:58:34;;;;;;;0.40;0.40;;;4.30;99.90;;;;;;4977130;28;20439;-71
2022/01/17 14:01:21;;;;;;;0.40;0.40;;;4.40;99.90;;;;;;5042606;28;20448;-73
2022/01/17 14:04:29;;;;;;;0.40;0.40;;;4.40;99.90;;;;;;5039223;28;20424;-71
2022/01/17 14:07:23;;;;;;;1.40;1.30;;;4.30;99.90;;;;;;5036713;28;20472;-70
2022/01/17 14:10:17;;;;;;;1.23;0.97;;;4.10;99.90;;;;;;5045692;28;20445;-70
2022/01/17 14:13:07;;;;;;;0.40;0.40;;;4.00;99.90;;;;;;5036911;28;20430;-73
2022/01/17 14:15:55;;;;;;;0.53;0.50;;;3.90;99.90;;;;;;5029372;28;20794;-71
2022/01/17 14:18:44;;;;;;;0.43;0.43;;;3.90;99.90;;;;;;5036482;28;20433;-73
2022/01/17 14:21:35;;;;;;;0.40;0.40;;;3.80;99.90;;;;;;5037235;28;20461;-71
2022/01/17 14:24:24;;;;;;;1.03;1.03;;;3.90;99.90;;;;;;5039300;28;20433;-70
2022/01/17 14:27:17;;;;;;;2.70;1.00;;;7.50;99.90;;;;;;5033166;28;20825;-70
2022/01/17 14:30:07;;;;;;;0.70;0.60;;;3.90;99.90;;;;;;5044455;28;20547;-72
2022/01/17 14:33:08;;;;;;;9.20;1.60;;;3.90;99.90;;;;;;5020288;28;20446;-70
2022/01/17 14:36:06;;;;;;;0.50;0.50;;;3.90;99.90;;;;;;5018837;28;20438;-71
2022/01/17 14:38:55;;;;;;;1.17;0.83;;;3.90;99.90;;;;;;5018603;28;20454;-70
2022/01/17 14:41:47;;;;;;;0.50;0.50;;;4.00;99.90;;;;;;5019455;28;20447;-73
2022/01/17 14:44:37;;;;;;;2.87;0.90;;;3.90;99.90;;;;;;5019188;28;20526;-70
2022/01/17 14:47:28;;;;;;;0.50;0.50;;;3.80;99.90;;;;;;5023548;28;20469;-70
2022/01/17 14:50:16;;;;;;;8.90;1.63;;;3.80;99.90;;;;;;5035369;28;20895;-73
2022/01/17 14:53:03;;;;;;;2.00;0.93;;;3.80;99.90;;;;;;5036434;28;20426;-69
2022/01/17 15:02:01;;;;;;;0.40;0.40;;;3.60;99.90;;;;;;5038785;28;20973;-71
2022/01/17 15:04:49;;;;;;;0.40;0.40;;;3.60;99.90;;;;;;5037734;28;20452;-71
2022/01/17 15:07:36;;;;;;;0.87;0.87;;;3.50;99.90;;;;;;5054169;28;20479;-71
2022/01/17 15:10:25;;;;;;;0.43;0.43;;;3.40;99.90;;;;;;5040768;28;20425;-74
2022/01/17 15:13:13;;;;;;;0.40;0.40;;;3.40;99.90;;;;;;5037373;28;20430;-71
2022/01/17 15:16:00;;;;;;;0.43;0.43;;;3.30;99.90;;;;;;5038568;28;20945;-73